Overview Statistics Trail Chart Weather Telemetry Raw packets
 

This is the latest recevied weather packets stored in our database for station/object KBTL-WX. If no packets are shown the sender has not sent any weather packets the latest 10 day(s).

<< 10 11 12 13 14 15 16 >>
Time Temp. Humidity Pressure Rain* Wind** Luminosity Snow
1777690836 1.67° C 69% 983.2 hPa 0 mm - - -
1777689913 2.22° C 58% 982.7 hPa 0 mm - - -
1777689030 2.22° C 61% 983.6 hPa 0 mm - - -
1777688113 2.22° C 61% 983.6 hPa 0 mm - - -
1777687233 2.22° C 61% 983.6 hPa 0 mm - - -
1777686313 2.78° C 60% 983.9 hPa 0 mm - - -
1777685429 2.78° C 60% 983.9 hPa 0 mm - - -
1777684513 2.78° C 60% 983.9 hPa 0 mm - - -
1777683630 3.33° C 60% 983.9 hPa 0 mm - - -
1777682712 3.89° C 56% 984.5 hPa 0 mm - - -
1777681830 3.89° C 57% 984.8 hPa 0 mm - - -
1777680913 5° C 57% 984.8 hPa 0 mm - - -
1777680037 5.56° C 57% 984.8 hPa 0 mm - - -
1777679113 5.56° C 49% 983 hPa 0 mm - - -
1777678226 6.11° C 53% 984.1 hPa 0 mm - - -
1777677313 6.11° C 53% 984.1 hPa 0 mm - - -
1777676433 6.67° C 53% 984.1 hPa 0 mm - - -
1777675513 6.67° C 54% 983.1 hPa 0 mm - - -
1777674630 6.67° C 57% 983.9 hPa 0 mm - - -
1777673713 6.67° C 57% 983.9 hPa 0 mm - - -
1777672852 6.67° C 57% 983.9 hPa 0 mm - - -
1777671913 6.67° C 60% 983.4 hPa 0 mm - - -
1777671026 6.67° C 61% 983.8 hPa 0 mm - - -
1777670113 5.56° C 61% 983.8 hPa 0 mm - - -
1777669236 6.67° C 61% 983.8 hPa 0 mm - - -

* Rain latest hour (hover to see other rain measurements)
** Current wind speed in m/s (hover to see current wind gust speed)